Time;durP1;ratioP1;P1;durP2;ratioP2;P2;SDS_P1;SDS_P2;PMS_P1;PMS_P2;Temp;Humidity;BMP_temperature;BMP_pressure;BME280_temperature;BME280_humidity;BME280_pressure;Samples;Min_cycle;Max_cycle;Signal;HPM_P1;HPM_P2
2023/06/21 00:00:24;;;;;;;0.20;0.20;;;;;;;;;;4990951;28;20215;-86
2023/06/21 00:02:55;;;;;;;0.20;0.20;;;;;;;;;;4991041;28;20197;-86
2023/06/21 00:05:23;;;;;;;0.20;0.20;;;;;;;;;;4990484;28;20212;-86
2023/06/21 00:07:54;;;;;;;0.30;0.30;;;;;;;;;;4990800;28;20208;-86
2023/06/21 00:10:23;;;;;;;0.30;0.30;;;;;;;;;;4990788;28;20215;-86
2023/06/21 00:12:52;;;;;;;0.20;0.20;;;;;;;;;;4990433;28;20271;-86
2023/06/21 00:15:20;;;;;;;0.20;0.20;;;;;;;;;;4990763;28;20233;-86
2023/06/21 00:17:50;;;;;;;0.20;0.20;;;;;;;;;;4991305;28;20280;-86
2023/06/21 00:20:20;;;;;;;0.20;0.20;;;;;;;;;;4990971;28;20216;-86
2023/06/21 00:22:55;;;;;;;0.20;0.20;;;;;;;;;;4990539;28;20223;-86
2023/06/21 00:25:24;;;;;;;0.23;0.23;;;;;;;;;;4990941;28;20207;-86
2023/06/21 00:27:53;;;;;;;0.30;0.30;;;;;;;;;;4990760;28;20228;-86
2023/06/21 00:30:21;;;;;;;0.30;0.30;;;;;;;;;;4990467;28;20201;-86
2023/06/21 00:32:50;;;;;;;0.30;0.30;;;;;;;;;;4990114;28;20230;-86
2023/06/21 00:35:20;;;;;;;0.30;0.30;;;;;;;;;;4990427;28;20206;-86
2023/06/21 00:37:49;;;;;;;0.20;0.20;;;;;;;;;;4990461;28;20304;-86
2023/06/21 00:40:21;;;;;;;0.20;0.20;;;;;;;;;;4990001;28;20203;-85
2023/06/21 00:42:50;;;;;;;0.30;0.30;;;;;;;;;;4990052;28;20203;-85
2023/06/21 00:45:18;;;;;;;0.23;0.23;;;;;;;;;;4990027;28;20208;-85
2023/06/21 00:47:47;;;;;;;0.30;0.30;;;;;;;;;;4989324;28;20262;-86
2023/06/21 00:50:16;;;;;;;0.30;0.30;;;;;;;;;;4990764;28;20205;-87
2023/06/21 00:52:46;;;;;;;0.30;0.30;;;;;;;;;;4990362;28;20227;-86
2023/06/21 00:55:19;;;;;;;0.30;0.30;;;;;;;;;;4990174;28;20200;-86
2023/06/21 00:57:48;;;;;;;0.30;0.30;;;;;;;;;;4990391;28;20204;-86
2023/06/21 01:00:20;;;;;;;0.30;0.30;;;;;;;;;;4990587;28;20208;-87
2023/06/21 01:02:49;;;;;;;0.30;0.30;;;;;;;;;;4990677;28;20228;-86
2023/06/21 01:05:18;;;;;;;0.30;0.30;;;;;;;;;;4989628;28;20208;-86
2023/06/21 01:07:55;;;;;;;0.20;0.20;;;;;;;;;;4990477;28;20263;-86
2023/06/21 01:10:33;;;;;;;0.20;0.20;;;;;;;;;;4993052;28;20210;-86
2023/06/21 01:13:09;;;;;;;0.20;0.20;;;;;;;;;;4994072;28;20224;-86
2023/06/21 01:15:40;;;;;;;0.20;0.20;;;;;;;;;;4994725;28;20264;-86
2023/06/21 01:18:11;;;;;;;0.30;0.30;;;;;;;;;;4995438;28;20298;-87
2023/06/21 01:20:39;;;;;;;0.30;0.30;;;;;;;;;;4994467;28;20258;-86
2023/06/21 01:23:15;;;;;;;0.30;0.30;;;;;;;;;;4993110;28;20253;-86
2023/06/21 01:25:50;;;;;;;0.20;0.20;;;;;;;;;;4993908;28;20209;-86
2023/06/21 01:28:34;;;;;;;0.30;0.30;;;;;;;;;;4993205;28;20233;-86
2023/06/21 01:31:04;;;;;;;0.30;0.30;;;;;;;;;;4993089;28;20198;-86
2023/06/21 01:33:35;;;;;;;0.30;0.30;;;;;;;;;;4993124;28;20224;-86
2023/06/21 01:36:04;;;;;;;0.30;0.30;;;;;;;;;;4993348;28;20228;-86
2023/06/21 01:38:33;;;;;;;0.30;0.30;;;;;;;;;;4993451;28;20284;-86
2023/06/21 01:41:02;;;;;;;0.30;0.30;;;;;;;;;;4992738;28;20202;-87
2023/06/21 01:43:31;;;;;;;0.30;0.30;;;;;;;;;;4993750;28;20202;-86
2023/06/21 01:46:01;;;;;;;0.30;0.30;;;;;;;;;;4992792;28;20235;-86
2023/06/21 01:48:33;;;;;;;0.30;0.30;;;;;;;;;;4992032;28;20237;-87
2023/06/21 01:51:02;;;;;;;0.20;0.20;;;;;;;;;;4993136;28;20207;-86
2023/06/21 01:53:32;;;;;;;0.30;0.30;;;;;;;;;;4992774;28;20280;-86
2023/06/21 01:56:02;;;;;;;0.30;0.30;;;;;;;;;;4992962;28;20216;-86
2023/06/21 01:58:32;;;;;;;0.20;0.20;;;;;;;;;;4992380;28;20238;-86
2023/06/21 02:01:01;;;;;;;0.30;0.30;;;;;;;;;;4993228;28;20205;-86
2023/06/21 02:03:29;;;;;;;0.30;0.30;;;;;;;;;;4992696;28;20215;-86
2023/06/21 02:06:04;;;;;;;0.30;0.30;;;;;;;;;;4992824;28;20205;-86
2023/06/21 02:08:34;;;;;;;0.30;0.30;;;;;;;;;;4992711;28;20207;-86
2023/06/21 02:11:02;;;;;;;0.33;0.33;;;;;;;;;;4993214;28;20206;-86
2023/06/21 02:13:31;;;;;;;0.90;0.90;;;;;;;;;;4992597;28;20227;-86
2023/06/21 02:15:59;;;;;;;0.30;0.30;;;;;;;;;;4992983;28;20239;-86
2023/06/21 02:18:28;;;;;;;0.30;0.30;;;;;;;;;;4992213;28;20215;-86
2023/06/21 02:20:57;;;;;;;0.30;0.30;;;;;;;;;;4991602;28;20202;-86
2023/06/21 02:23:27;;;;;;;0.30;0.30;;;;;;;;;;4991927;28;20239;-86
2023/06/21 02:25:56;;;;;;;0.30;0.30;;;;;;;;;;4992077;28;20216;-86
2023/06/21 02:28:24;;;;;;;0.30;0.30;;;;;;;;;;4992375;28;20232;-85
2023/06/21 02:30:53;;;;;;;0.30;0.30;;;;;;;;;;4991818;28;20258;-85
2023/06/21 02:33:21;;;;;;;0.30;0.30;;;;;;;;;;4991617;28;20298;-85
2023/06/21 02:35:49;;;;;;;0.30;0.30;;;;;;;;;;4991701;28;20250;-85
2023/06/21 02:38:19;;;;;;;0.30;0.30;;;;;;;;;;4991907;28;20231;-85
2023/06/21 02:40:51;;;;;;;0.30;0.30;;;;;;;;;;4991467;28;20233;-85
2023/06/21 02:43:20;;;;;;;0.30;0.30;;;;;;;;;;4991590;28;20197;-85
2023/06/21 02:45:48;;;;;;;0.30;0.30;;;;;;;;;;4991925;28;20202;-85
2023/06/21 02:48:17;;;;;;;0.30;0.30;;;;;;;;;;4991160;28;20303;-85
2023/06/21 02:50:45;;;;;;;0.30;0.30;;;;;;;;;;4991855;28;20210;-85
2023/06/21 02:53:14;;;;;;;0.30;0.30;;;;;;;;;;4991903;28;20271;-85
2023/06/21 02:55:42;;;;;;;0.30;0.30;;;;;;;;;;4992055;28;20219;-85
2023/06/21 02:58:12;;;;;;;0.30;0.30;;;;;;;;;;4991283;28;20208;-85
2023/06/21 03:00:41;;;;;;;0.30;0.30;;;;;;;;;;4991711;28;20208;-85
2023/06/21 03:03:09;;;;;;;0.30;0.30;;;;;;;;;;4992372;28;20213;-85
2023/06/21 03:05:38;;;;;;;0.30;0.30;;;;;;;;;;4991430;28;20212;-85
2023/06/21 03:08:11;;;;;;;0.30;0.30;;;;;;;;;;4991450;28;20202;-85
2023/06/21 03:10:40;;;;;;;0.30;0.30;;;;;;;;;;4991786;28;20296;-85
2023/06/21 03:13:08;;;;;;;0.20;0.20;;;;;;;;;;4991924;28;20217;-85
2023/06/21 03:15:38;;;;;;;0.30;0.30;;;;;;;;;;4990938;28;20202;-85
2023/06/21 03:18:06;;;;;;;0.30;0.30;;;;;;;;;;4992067;28;20201;-87
2023/06/21 03:20:35;;;;;;;0.30;0.30;;;;;;;;;;4992116;28;20208;-86
2023/06/21 03:23:03;;;;;;;0.30;0.30;;;;;;;;;;4990934;28;20191;-86
2023/06/21 03:25:32;;;;;;;0.30;0.30;;;;;;;;;;4991557;28;20235;-86
2023/06/21 03:28:00;;;;;;;0.30;0.30;;;;;;;;;;4991129;28;20217;-86
2023/06/21 03:30:29;;;;;;;0.30;0.30;;;;;;;;;;4991627;28;20228;-86
2023/06/21 03:32:59;;;;;;;0.30;0.30;;;;;;;;;;4989690;28;20252;-86
2023/06/21 03:35:29;;;;;;;0.30;0.30;;;;;;;;;;4991819;28;20206;-85
2023/06/21 03:37:57;;;;;;;0.30;0.30;;;;;;;;;;4990455;28;20357;-85
2023/06/21 03:40:26;;;;;;;0.30;0.30;;;;;;;;;;4990779;28;20201;-85
2023/06/21 03:42:55;;;;;;;0.30;0.30;;;;;;;;;;4990641;28;20209;-85
2023/06/21 03:45:23;;;;;;;0.30;0.30;;;;;;;;;;4991330;28;20204;-85
2023/06/21 03:47:52;;;;;;;0.30;0.30;;;;;;;;;;4990629;28;20253;-85
2023/06/21 03:50:22;;;;;;;0.30;0.30;;;;;;;;;;4989919;28;20224;-85
2023/06/21 03:52:51;;;;;;;0.30;0.30;;;;;;;;;;4991170;28;20205;-85
2023/06/21 03:55:20;;;;;;;0.30;0.30;;;;;;;;;;4990845;28;20200;-85
2023/06/21 03:57:48;;;;;;;0.30;0.30;;;;;;;;;;4990442;28;20252;-85
2023/06/21 04:00:18;;;;;;;0.30;0.30;;;;;;;;;;4990618;28;20205;-85
2023/06/21 04:02:46;;;;;;;0.30;0.30;;;;;;;;;;4990596;28;20297;-85
2023/06/21 04:05:15;;;;;;;0.30;0.30;;;;;;;;;;4990396;28;20201;-85
2023/06/21 04:07:46;;;;;;;0.30;0.30;;;;;;;;;;4990061;28;20201;-85
2023/06/21 04:10:14;;;;;;;0.30;0.30;;;;;;;;;;4991155;28;20211;-85
2023/06/21 04:12:43;;;;;;;0.30;0.30;;;;;;;;;;4990210;28;20213;-85
2023/06/21 04:15:12;;;;;;;0.30;0.30;;;;;;;;;;4989739;28;20216;-85
2023/06/21 04:17:42;;;;;;;0.43;0.43;;;;;;;;;;4989829;28;20207;-86
2023/06/21 04:20:13;;;;;;;0.30;0.30;;;;;;;;;;4990383;28;20201;-85
2023/06/21 04:22:42;;;;;;;0.30;0.30;;;;;;;;;;4989976;28;20255;-85
2023/06/21 04:25:12;;;;;;;0.30;0.30;;;;;;;;;;4989995;28;20204;-85
2023/06/21 04:27:41;;;;;;;0.30;0.30;;;;;;;;;;4990113;28;20226;-85
2023/06/21 04:30:10;;;;;;;0.30;0.30;;;;;;;;;;4990281;28;20204;-85
2023/06/21 04:32:44;;;;;;;0.30;0.30;;;;;;;;;;4990071;28;20219;-85
2023/06/21 04:35:15;;;;;;;0.30;0.30;;;;;;;;;;4990128;28;20244;-87
2023/06/21 04:37:45;;;;;;;0.30;0.30;;;;;;;;;;4990310;28;20205;-87
2023/06/21 04:40:16;;;;;;;0.30;0.30;;;;;;;;;;4990111;28;20203;-87
2023/06/21 04:42:47;;;;;;;0.30;0.30;;;;;;;;;;4989367;28;20202;-85
2023/06/21 04:45:16;;;;;;;0.30;0.30;;;;;;;;;;4990196;28;20195;-86
2023/06/21 04:47:46;;;;;;;0.40;0.40;;;;;;;;;;4989241;28;20234;-85
2023/06/21 04:50:15;;;;;;;0.30;0.30;;;;;;;;;;4989229;28;20300;-85
2023/06/21 04:52:49;;;;;;;0.30;0.30;;;;;;;;;;4989604;28;20217;-86
2023/06/21 04:55:20;;;;;;;0.30;0.30;;;;;;;;;;4989870;28;20228;-86
2023/06/21 04:57:49;;;;;;;0.30;0.30;;;;;;;;;;4989484;28;20206;-85
2023/06/21 05:00:18;;;;;;;0.30;0.30;;;;;;;;;;4989643;28;20263;-85
2023/06/21 05:02:47;;;;;;;0.30;0.30;;;;;;;;;;4989572;28;20195;-86
2023/06/21 05:05:16;;;;;;;0.30;0.30;;;;;;;;;;4990452;28;20201;-87
2023/06/21 05:07:44;;;;;;;0.30;0.30;;;;;;;;;;4989619;28;20236;-87
2023/06/21 05:10:13;;;;;;;0.30;0.30;;;;;;;;;;4990021;28;20228;-87
2023/06/21 05:12:43;;;;;;;0.30;0.30;;;;;;;;;;4990195;28;20208;-87
2023/06/21 05:15:11;;;;;;;0.30;0.30;;;;;;;;;;4990393;28;20235;-87
2023/06/21 05:17:40;;;;;;;0.30;0.30;;;;;;;;;;4990745;28;20204;-87
2023/06/21 05:20:09;;;;;;;0.30;0.30;;;;;;;;;;4990299;28;20208;-87
2023/06/21 05:22:39;;;;;;;0.30;0.30;;;;;;;;;;4990149;28;20204;-87
2023/06/21 05:25:07;;;;;;;0.30;0.30;;;;;;;;;;4989173;28;20204;-87
2023/06/21 05:27:36;;;;;;;0.20;0.20;;;;;;;;;;4989392;28;20223;-87
2023/06/21 05:30:06;;;;;;;0.30;0.30;;;;;;;;;;4989701;28;20203;-87
2023/06/21 05:32:35;;;;;;;0.30;0.30;;;;;;;;;;4989330;28;20241;-87
2023/06/21 05:35:03;;;;;;;0.30;0.30;;;;;;;;;;4989719;28;20228;-87
2023/06/21 05:37:32;;;;;;;0.30;0.30;;;;;;;;;;4989420;28;20219;-87
2023/06/21 05:40:02;;;;;;;0.30;0.30;;;;;;;;;;4989435;28;20219;-87
2023/06/21 05:42:31;;;;;;;0.30;0.30;;;;;;;;;;4989365;28;20207;-87
2023/06/21 05:45:00;;;;;;;0.30;0.30;;;;;;;;;;4989538;28;20202;-87
2023/06/21 05:47:29;;;;;;;0.30;0.30;;;;;;;;;;4989322;28;20201;-86
2023/06/21 05:49:58;;;;;;;0.20;0.20;;;;;;;;;;4989205;28;20214;-85
2023/06/21 05:52:27;;;;;;;0.30;0.30;;;;;;;;;;4989387;28;20239;-86
2023/06/21 05:54:55;;;;;;;0.30;0.30;;;;;;;;;;4990244;28;20218;-85
2023/06/21 05:57:26;;;;;;;0.40;0.40;;;;;;;;;;4992340;28;20206;-85
2023/06/21 05:59:55;;;;;;;0.30;0.30;;;;;;;;;;4992297;28;20214;-84
2023/06/21 06:02:24;;;;;;;0.30;0.30;;;;;;;;;;4992394;28;20226;-85
2023/06/21 06:04:54;;;;;;;0.30;0.30;;;;;;;;;;4992606;28;20299;-86
2023/06/21 06:07:25;;;;;;;0.30;0.30;;;;;;;;;;4992108;28;20203;-85
2023/06/21 06:09:53;;;;;;;0.30;0.30;;;;;;;;;;4992084;28;20292;-85
2023/06/21 06:12:22;;;;;;;0.20;0.20;;;;;;;;;;4992354;28;20213;-86
2023/06/21 06:14:51;;;;;;;0.30;0.30;;;;;;;;;;4992166;28;20248;-85
2023/06/21 06:17:20;;;;;;;0.30;0.30;;;;;;;;;;4991851;28;20203;-85
2023/06/21 06:19:49;;;;;;;0.30;0.30;;;;;;;;;;4992156;28;20212;-83
2023/06/21 06:22:19;;;;;;;0.30;0.30;;;;;;;;;;4992442;28;20292;-86
2023/06/21 06:24:48;;;;;;;0.30;0.30;;;;;;;;;;4991631;28;20190;-85
2023/06/21 06:27:17;;;;;;;0.30;0.30;;;;;;;;;;4992181;28;20229;-85
2023/06/21 06:29:45;;;;;;;0.30;0.30;;;;;;;;;;4992492;28;20198;-86
2023/06/21 06:32:14;;;;;;;0.30;0.30;;;;;;;;;;4992544;28;20239;-83
2023/06/21 06:34:42;;;;;;;0.30;0.30;;;;;;;;;;4993266;28;20218;-82
2023/06/21 06:37:12;;;;;;;0.30;0.30;;;;;;;;;;4991942;28;20214;-83
2023/06/21 06:39:48;;;;;;;2.43;1.10;;;;;;;;;;4991726;28;20199;-83
2023/06/21 06:42:17;;;;;;;2.13;1.17;;;;;;;;;;4991320;28;20262;-83
2023/06/21 06:44:45;;;;;;;2.20;1.03;;;;;;;;;;4991851;28;20194;-83
2023/06/21 06:47:14;;;;;;;3.30;3.10;;;;;;;;;;4991170;28;20190;-83
2023/06/21 06:49:42;;;;;;;1.73;1.63;;;;;;;;;;4991146;28;20207;-83
2023/06/21 06:52:11;;;;;;;2.67;1.67;;;;;;;;;;4990917;28;20275;-83
2023/06/21 06:54:40;;;;;;;0.93;0.83;;;;;;;;;;4990763;28;20189;-84
2023/06/21 06:57:10;;;;;;;2.43;1.67;;;;;;;;;;4991896;28;20207;-84
2023/06/21 06:59:57;;;;;;;1.47;1.10;;;;;;;;;;4990595;28;20210;-84
2023/06/21 07:02:26;;;;;;;2.77;1.07;;;;;;;;;;4991707;28;20209;-84
2023/06/21 07:04:54;;;;;;;10.33;2.43;;;;;;;;;;4991403;28;20246;-84
2023/06/21 07:07:23;;;;;;;2.53;1.00;;;;;;;;;;4991102;28;20213;-84
2023/06/21 07:09:51;;;;;;;1.23;0.80;;;;;;;;;;4990925;28;20213;-84
2023/06/21 07:12:21;;;;;;;2.60;2.00;;;;;;;;;;4991227;28;20201;-85
2023/06/21 07:14:49;;;;;;;3.83;1.57;;;;;;;;;;4991391;28;20270;-85
2023/06/21 07:17:18;;;;;;;1.33;1.23;;;;;;;;;;4990395;28;20202;-85
2023/06/21 07:19:46;;;;;;;1.47;1.17;;;;;;;;;;4991600;28;20210;-85
2023/06/21 07:22:15;;;;;;;1.87;1.00;;;;;;;;;;4991050;28;20210;-85
2023/06/21 07:24:44;;;;;;;5.27;1.80;;;;;;;;;;4991540;28;20207;-85
2023/06/21 07:27:12;;;;;;;0.83;0.83;;;;;;;;;;4990392;28;20237;-85
2023/06/21 07:29:42;;;;;;;3.77;2.30;;;;;;;;;;4991022;28;20229;-85
2023/06/21 07:32:11;;;;;;;2.43;1.33;;;;;;;;;;4990761;28;20228;-86
2023/06/21 07:34:39;;;;;;;3.23;1.33;;;;;;;;;;4990717;28;20201;-86
2023/06/21 07:37:11;;;;;;;1.07;1.00;;;;;;;;;;4990831;28;20226;-86
2023/06/21 07:39:40;;;;;;;2.87;2.17;;;;;;;;;;4991343;28;20230;-85
2023/06/21 07:42:22;;;;;;;1.33;1.27;;;;;;;;;;4990683;28;20214;-86
2023/06/21 07:44:53;;;;;;;2.33;1.73;;;;;;;;;;4991290;28;20295;-85
2023/06/21 07:47:23;;;;;;;0.60;0.60;;;;;;;;;;4990960;28;20217;-86
2023/06/21 07:49:52;;;;;;;1.13;1.13;;;;;;;;;;4990512;28;20199;-86
2023/06/21 07:52:24;;;;;;;1.90;1.70;;;;;;;;;;4990414;28;20207;-86
2023/06/21 07:54:52;;;;;;;7.80;2.80;;;;;;;;;;4990844;28;20213;-86
2023/06/21 07:57:21;;;;;;;3.23;2.30;;;;;;;;;;4990548;28;20204;-85
2023/06/21 07:59:49;;;;;;;4.37;2.80;;;;;;;;;;4990148;28;20209;-85
2023/06/21 08:02:19;;;;;;;4.83;4.50;;;;;;;;;;4990430;28;20203;-86
2023/06/21 08:04:48;;;;;;;1.53;1.43;;;;;;;;;;4991429;28;20293;-86
2023/06/21 08:07:16;;;;;;;1.47;1.37;;;;;;;;;;4990729;28;20198;-86
2023/06/21 08:09:45;;;;;;;1.97;1.87;;;;;;;;;;4990769;28;20247;-86
2023/06/21 08:12:14;;;;;;;3.90;2.10;;;;;;;;;;4990938;28;20290;-86
2023/06/21 08:14:43;;;;;;;3.80;1.60;;;;;;;;;;4990357;28;20218;-85
2023/06/21 08:17:11;;;;;;;1.30;1.17;;;;;;;;;;4989583;28;20225;-86
2023/06/21 08:19:41;;;;;;;0.40;0.40;;;;;;;;;;4989549;28;20228;-86
2023/06/21 08:22:10;;;;;;;3.50;1.30;;;;;;;;;;4991069;28;20207;-86
2023/06/21 08:24:39;;;;;;;2.70;1.83;;;;;;;;;;4990466;28;20222;-85
2023/06/21 08:27:07;;;;;;;1.37;1.27;;;;;;;;;;4989584;28;20255;-84
2023/06/21 08:29:36;;;;;;;2.50;2.00;;;;;;;;;;4990099;28;20209;-84
2023/06/21 08:32:09;;;;;;;3.60;2.27;;;;;;;;;;4990181;28;20255;-84
2023/06/21 08:34:42;;;;;;;1.07;1.03;;;;;;;;;;4989600;28;20214;-84
2023/06/21 08:37:10;;;;;;;4.90;2.20;;;;;;;;;;4989606;28;20218;-85
2023/06/21 08:39:39;;;;;;;5.60;3.50;;;;;;;;;;4990281;28;20202;-84
2023/06/21 08:42:08;;;;;;;4.67;2.27;;;;;;;;;;4989825;28;20218;-84
2023/06/21 08:44:37;;;;;;;5.50;3.37;;;;;;;;;;4989804;28;20203;-85
2023/06/21 08:47:08;;;;;;;7.50;3.00;;;;;;;;;;4989545;28;20200;-85
2023/06/21 08:49:40;;;;;;;4.00;3.27;;;;;;;;;;4989626;28;20249;-84
2023/06/21 08:52:11;;;;;;;3.60;3.30;;;;;;;;;;4989293;28;20308;-85
2023/06/21 08:54:41;;;;;;;2.97;1.43;;;;;;;;;;4989774;28;20210;-85
2023/06/21 08:57:15;;;;;;;7.73;2.80;;;;;;;;;;4989720;28;20220;-84
2023/06/21 08:59:48;;;;;;;2.60;2.07;;;;;;;;;;4989981;28;20210;-85
2023/06/21 09:02:21;;;;;;;1.63;1.53;;;;;;;;;;4989874;28;20206;-85
2023/06/21 09:04:51;;;;;;;4.87;3.20;;;;;;;;;;4989828;28;20210;-85
2023/06/21 09:07:22;;;;;;;8.47;3.67;;;;;;;;;;4989560;28;20204;-85
2023/06/21 09:09:52;;;;;;;2.73;0.97;;;;;;;;;;4989268;28;20213;-85
2023/06/21 09:12:21;;;;;;;1.87;1.70;;;;;;;;;;4989277;28;20210;-85
2023/06/21 09:14:49;;;;;;;4.07;2.00;;;;;;;;;;4990026;28;20222;-85
2023/06/21 09:17:18;;;;;;;3.03;1.50;;;;;;;;;;4989408;28;20227;-85
2023/06/21 09:19:47;;;;;;;4.83;3.03;;;;;;;;;;4989432;28;20196;-84
2023/06/21 09:22:15;;;;;;;10.13;5.00;;;;;;;;;;4989953;28;20212;-86
2023/06/21 09:24:46;;;;;;;7.83;4.93;;;;;;;;;;4988855;28;20213;-86
2023/06/21 09:27:15;;;;;;;2.63;1.80;;;;;;;;;;4989052;28;20231;-86
2023/06/21 09:29:43;;;;;;;2.03;1.87;;;;;;;;;;4989749;28;20208;-86
2023/06/21 09:32:12;;;;;;;1.37;1.27;;;;;;;;;;4993065;28;20213;-86
2023/06/21 09:34:41;;;;;;;4.00;2.80;;;;;;;;;;4991865;28;20211;-85
2023/06/21 09:37:09;;;;;;;4.60;2.70;;;;;;;;;;4992207;28;20222;-86
2023/06/21 09:39:38;;;;;;;4.63;2.90;;;;;;;;;;4993239;28;20205;-85
2023/06/21 09:42:12;;;;;;;4.13;2.60;;;;;;;;;;4992373;28;20208;-86
2023/06/21 09:44:41;;;;;;;1.90;1.73;;;;;;;;;;4992898;28;20204;-86
2023/06/21 09:47:12;;;;;;;2.50;1.80;;;;;;;;;;4993061;28;20213;-85
2023/06/21 09:49:46;;;;;;;4.40;3.60;;;;;;;;;;4992337;28;20216;-86
2023/06/21 09:52:15;;;;;;;6.43;1.73;;;;;;;;;;4992125;28;20215;-86
2023/06/21 09:54:44;;;;;;;4.40;2.20;;;;;;;;;;4992484;28;20208;-85
2023/06/21 09:57:17;;;;;;;5.03;1.97;;;;;;;;;;4992129;28;20239;-85
2023/06/21 09:59:49;;;;;;;6.47;3.40;;;;;;;;;;4992441;28;20204;-86
2023/06/21 10:02:18;;;;;;;7.03;3.13;;;;;;;;;;4992065;28;20213;-86
2023/06/21 10:04:46;;;;;;;4.10;3.47;;;;;;;;;;4992722;28;20247;-85
2023/06/21 10:07:15;;;;;;;7.97;3.53;;;;;;;;;;4992421;28;20205;-85
2023/06/21 10:09:44;;;;;;;6.17;3.53;;;;;;;;;;4992205;28;20216;-85
2023/06/21 10:12:13;;;;;;;5.77;3.40;;;;;;;;;;4992420;28;20205;-85
2023/06/21 10:14:43;;;;;;;6.40;4.37;;;;;;;;;;4992480;28;20204;-86
2023/06/21 10:17:12;;;;;;;2.60;1.87;;;;;;;;;;4991711;28;20320;-86
2023/06/21 10:19:43;;;;;;;6.93;4.23;;;;;;;;;;4992285;28;20201;-86
2023/06/21 10:22:20;;;;;;;6.70;5.73;;;;;;;;;;4992369;28;20207;-86
2023/06/21 10:24:49;;;;;;;4.57;2.80;;;;;;;;;;4992204;28;20279;-85
2023/06/21 10:27:18;;;;;;;7.67;2.80;;;;;;;;;;4991197;28;20210;-86
2023/06/21 10:29:50;;;;;;;1.60;1.47;;;;;;;;;;4992194;28;20201;-86
2023/06/21 10:32:18;;;;;;;7.97;2.50;;;;;;;;;;4991793;28;20205;-86
2023/06/21 10:34:52;;;;;;;5.17;3.33;;;;;;;;;;4991438;28;20205;-86
2023/06/21 10:37:23;;;;;;;8.53;6.00;;;;;;;;;;4991925;28;20307;-86
2023/06/21 10:39:54;;;;;;;3.30;2.80;;;;;;;;;;4991883;28;20210;-86
2023/06/21 10:42:38;;;;;;;9.13;5.67;;;;;;;;;;4991843;28;20300;-86
2023/06/21 10:45:09;;;;;;;7.00;4.63;;;;;;;;;;4991252;28;20372;-86
2023/06/21 10:47:39;;;;;;;9.73;6.37;;;;;;;;;;4991442;28;20225;-86
2023/06/21 10:50:08;;;;;;;5.67;4.30;;;;;;;;;;4991680;28;20204;-86
2023/06/21 10:52:37;;;;;;;7.00;4.93;;;;;;;;;;4991445;28;20235;-86
2023/06/21 10:55:08;;;;;;;11.00;5.50;;;;;;;;;;4991785;28;20235;-86
2023/06/21 10:57:36;;;;;;;4.40;3.57;;;;;;;;;;4991374;28;20319;-86
2023/06/21 11:00:09;;;;;;;13.17;8.00;;;;;;;;;;4991491;28;20214;-85
2023/06/21 11:02:39;;;;;;;8.37;5.67;;;;;;;;;;4991027;28;20200;-86
2023/06/21 11:05:14;;;;;;;3.80;2.90;;;;;;;;;;4991600;28;20212;-86
2023/06/21 11:07:47;;;;;;;6.13;3.23;;;;;;;;;;4991284;28;20280;-86
2023/06/21 11:10:16;;;;;;;1.57;1.47;;;;;;;;;;4991463;28;20211;-86
2023/06/21 11:12:45;;;;;;;3.13;2.53;;;;;;;;;;4991331;28;20208;-86
2023/06/21 11:15:22;;;;;;;9.27;5.93;;;;;;;;;;4991354;28;20223;-86
2023/06/21 11:17:58;;;;;;;4.33;2.80;;;;;;;;;;4991131;28;20233;-86
2023/06/21 11:20:27;;;;;;;3.23;2.80;;;;;;;;;;4990881;28;20193;-86
2023/06/21 11:22:56;;;;;;;2.70;2.43;;;;;;;;;;4991488;28;20210;-86
2023/06/21 11:25:25;;;;;;;5.37;3.57;;;;;;;;;;4991330;28;20267;-86
2023/06/21 11:28:12;;;;;;;2.80;2.27;;;;;;;;;;4990497;28;20256;-83
2023/06/21 11:30:41;;;;;;;9.60;6.53;;;;;;;;;;4990924;28;20214;-83
2023/06/21 11:33:20;;;;;;;7.97;3.37;;;;;;;;;;4990763;28;20201;-83
2023/06/21 11:35:49;;;;;;;5.00;4.37;;;;;;;;;;4990554;28;20227;-82
2023/06/21 11:38:18;;;;;;;5.20;4.13;;;;;;;;;;4990543;28;20224;-82
2023/06/21 11:40:47;;;;;;;8.50;3.93;;;;;;;;;;4990446;28;20269;-83
2023/06/21 11:43:18;;;;;;;7.93;6.03;;;;;;;;;;4990425;28;20194;-83
2023/06/21 11:45:56;;;;;;;7.43;3.93;;;;;;;;;;4990403;28;20211;-83
2023/06/21 11:48:27;;;;;;;7.53;4.40;;;;;;;;;;4990630;28;20243;-83
2023/06/21 11:50:56;;;;;;;4.20;2.93;;;;;;;;;;4990543;28;20205;-83
2023/06/21 11:53:26;;;;;;;5.63;4.37;;;;;;;;;;4989519;28;20215;-83
2023/06/21 11:55:56;;;;;;;3.27;2.57;;;;;;;;;;4990561;28;20213;-82
2023/06/21 11:58:25;;;;;;;4.67;3.80;;;;;;;;;;4990277;28;20197;-82
2023/06/21 12:00:54;;;;;;;10.93;6.03;;;;;;;;;;4990253;28;20198;-82
2023/06/21 12:03:25;;;;;;;9.47;7.50;;;;;;;;;;4990605;28;20207;-82
2023/06/21 12:05:56;;;;;;;10.77;8.57;;;;;;;;;;4990110;28;20206;-82
2023/06/21 12:08:26;;;;;;;8.87;1.27;;;;;;;;;;4990785;28;20218;-82
2023/06/21 12:10:58;;;;;;;5.57;2.77;;;;;;;;;;4989732;28;20204;-82
2023/06/21 12:13:27;;;;;;;6.67;5.67;;;;;;;;;;4990593;28;20206;-82
2023/06/21 12:15:56;;;;;;;4.63;4.13;;;;;;;;;;4990147;28;20205;-82
2023/06/21 12:18:26;;;;;;;10.20;7.67;;;;;;;;;;4989814;28;20196;-82
2023/06/21 12:20:56;;;;;;;9.57;4.20;;;;;;;;;;4990021;28;20200;-82
2023/06/21 12:23:25;;;;;;;4.50;2.50;;;;;;;;;;4990159;28;20239;-82
2023/06/21 12:25:55;;;;;;;11.10;4.03;;;;;;;;;;4990263;28;20214;-82
2023/06/21 12:28:25;;;;;;;8.00;4.93;;;;;;;;;;4989801;28;20230;-82
2023/06/21 12:30:55;;;;;;;6.37;5.10;;;;;;;;;;4990331;28;20248;-82
2023/06/21 12:33:27;;;;;;;9.80;6.20;;;;;;;;;;4989833;28;20208;-82
2023/06/21 12:36:10;;;;;;;6.77;3.23;;;;;;;;;;4990196;28;20202;-82
2023/06/21 12:38:40;;;;;;;4.50;3.70;;;;;;;;;;4989855;28;20202;-82
2023/06/21 12:41:09;;;;;;;9.17;5.67;;;;;;;;;;4990083;28;20216;-83
2023/06/21 12:43:38;;;;;;;10.47;6.03;;;;;;;;;;4990259;28;20205;-84
2023/06/21 12:46:07;;;;;;;7.70;5.10;;;;;;;;;;4990053;28;20201;-84
2023/06/21 12:48:37;;;;;;;5.77;4.50;;;;;;;;;;4989642;28;20246;-84
2023/06/21 12:51:05;;;;;;;11.33;9.47;;;;;;;;;;4990310;28;20208;-84
2023/06/21 12:53:38;;;;;;;6.33;5.73;;;;;;;;;;4989920;28;20229;-84
2023/06/21 12:56:10;;;;;;;2.93;1.23;;;;;;;;;;4990665;28;20201;-85
2023/06/21 12:58:39;;;;;;;5.10;3.60;;;;;;;;;;4989774;28;20204;-85
2023/06/21 13:01:08;;;;;;;5.00;3.67;;;;;;;;;;4989557;28;20291;-85
2023/06/21 13:03:36;;;;;;;4.83;4.33;;;;;;;;;;4989473;28;20213;-86
2023/06/21 13:06:05;;;;;;;5.03;3.57;;;;;;;;;;4993171;28;20205;-85
2023/06/21 13:08:34;;;;;;;10.80;7.40;;;;;;;;;;4992933;28;20274;-86
2023/06/21 13:11:04;;;;;;;18.70;11.00;;;;;;;;;;4992617;28;20234;-85
2023/06/21 13:13:34;;;;;;;8.17;5.47;;;;;;;;;;4993482;28;20215;-85
2023/06/21 13:16:03;;;;;;;8.40;4.90;;;;;;;;;;4993069;28;20242;-85
2023/06/21 13:18:33;;;;;;;13.57;7.90;;;;;;;;;;4992933;28;20208;-85
2023/06/21 13:21:02;;;;;;;6.53;4.40;;;;;;;;;;4993040;28;20202;-85
2023/06/21 13:23:30;;;;;;;4.83;3.80;;;;;;;;;;4993106;28;20296;-86
2023/06/21 13:25:59;;;;;;;11.63;5.70;;;;;;;;;;4992989;28;20204;-85
2023/06/21 13:28:28;;;;;;;12.07;3.73;;;;;;;;;;4992232;28;20225;-86
2023/06/21 13:30:58;;;;;;;3.27;1.63;;;;;;;;;;4992756;28;20206;-86
2023/06/21 13:33:26;;;;;;;9.07;4.10;;;;;;;;;;4992873;28;20205;-86
2023/06/21 13:35:55;;;;;;;6.27;4.57;;;;;;;;;;4992923;28;20214;-86
2023/06/21 13:38:24;;;;;;;7.13;4.43;;;;;;;;;;4992373;28;20198;-86
2023/06/21 13:40:53;;;;;;;3.80;3.40;;;;;;;;;;4992556;28;20210;-86
2023/06/21 13:43:23;;;;;;;6.43;3.60;;;;;;;;;;4992439;28;20205;-86
2023/06/21 13:45:51;;;;;;;5.40;3.70;;;;;;;;;;4992190;28;20222;-86
2023/06/21 13:48:21;;;;;;;2.73;2.47;;;;;;;;;;4992142;28;20275;-86
2023/06/21 13:50:51;;;;;;;4.47;4.07;;;;;;;;;;4992912;28;20204;-86
2023/06/21 13:53:21;;;;;;;5.80;3.17;;;;;;;;;;4992295;28;20204;-86
2023/06/21 13:55:50;;;;;;;5.43;4.43;;;;;;;;;;4992448;28;20278;-86
2023/06/21 13:58:18;;;;;;;6.47;4.37;;;;;;;;;;4992792;28;20212;-86
2023/06/21 14:00:47;;;;;;;3.67;3.20;;;;;;;;;;4992766;28;20236;-87
2023/06/21 14:03:16;;;;;;;5.17;4.43;;;;;;;;;;4992192;28;20201;-87
2023/06/21 14:05:46;;;;;;;2.53;2.30;;;;;;;;;;4992433;28;20235;-86
2023/06/21 14:08:15;;;;;;;1.37;1.27;;;;;;;;;;4992925;28;20198;-87
2023/06/21 14:10:44;;;;;;;3.60;2.53;;;;;;;;;;4991860;28;20216;-81
2023/06/21 14:13:13;;;;;;;15.70;6.10;;;;;;;;;;4992049;28;20224;-81
2023/06/21 14:15:42;;;;;;;2.47;1.43;;;;;;;;;;4991340;28;20208;-81
2023/06/21 14:18:10;;;;;;;2.20;1.70;;;;;;;;;;4991314;28;20194;-81
2023/06/21 14:20:39;;;;;;;3.03;2.40;;;;;;;;;;4991497;28;20198;-81
2023/06/21 14:23:09;;;;;;;3.77;3.00;;;;;;;;;;4991995;28;20199;-80
2023/06/21 14:25:39;;;;;;;9.90;4.40;;;;;;;;;;4991909;28;20191;-81
2023/06/21 14:28:07;;;;;;;2.47;1.73;;;;;;;;;;4991702;28;20280;-82
2023/06/21 14:30:36;;;;;;;4.17;3.87;;;;;;;;;;4991411;28;20244;-81
2023/06/21 14:33:04;;;;;;;6.43;4.20;;;;;;;;;;4991709;28;20210;-81
2023/06/21 14:35:35;;;;;;;2.97;2.77;;;;;;;;;;4991982;28;20301;-81
2023/06/21 14:38:04;;;;;;;2.67;2.40;;;;;;;;;;4991034;28;20278;-81
2023/06/21 14:40:34;;;;;;;6.47;3.27;;;;;;;;;;4991860;28;20240;-81
2023/06/21 14:43:03;;;;;;;1.50;1.40;;;;;;;;;;4992354;28;20288;-81
2023/06/21 14:45:31;;;;;;;4.83;3.33;;;;;;;;;;4991230;28;20207;-81
2023/06/21 14:48:00;;;;;;;3.03;1.53;;;;;;;;;;4990643;28;20243;-82
2023/06/21 14:50:29;;;;;;;4.33;2.77;;;;;;;;;;4991437;28;20261;-82
2023/06/21 14:52:59;;;;;;;3.77;2.77;;;;;;;;;;4991451;28;20202;-82
2023/06/21 14:55:27;;;;;;;4.07;2.90;;;;;;;;;;4991344;28;20220;-82
2023/06/21 14:57:57;;;;;;;4.70;2.53;;;;;;;;;;4991183;28;20207;-82